Terminal Aerodrome Forecast
Issued by NWS

Home | Current Version | Previous Version | Text Only | Print | Product List | Glossary On
Versions: 1 2 3 4 5 6 7 8 9 10 11 12 13 14 15 16 17 18 19 20 21 22
000
FTUS43 KMPX 231100
TAFRNH
TAF
KRNH 231139Z 2312/2412 06005KT 6SM BR OVC005
     FM231600 07008KT P6SM BKN015
     FM232000 09008KT P6SM SCT020 BKN100
     FM240500 12009KT P6SM OVC008
     FM240800 14010KT 5SM BR OVC004=

USA.gov is the U.S. government's official web portal to all federal, state and local government web resources and services.